Time;durP1;ratioP1;P1;durP2;ratioP2;P2;SDS_P1;SDS_P2;PMS_P1;PMS_P2;Temp;Humidity;BMP_temperature;BMP_pressure;BME280_temperature;BME280_humidity;BME280_pressure;Samples;Min_cycle;Max_cycle;Signal;HPM_P1;HPM_P2
2021/03/22 00:00:48;;;;;;;42.33;11.25;;;2.90;99.10;;;;;;5090675;28;20058;-63
2021/03/22 00:03:17;;;;;;;29.30;10.40;;;2.80;99.70;;;;;;5088926;28;20080;-63
2021/03/22 00:05:42;;;;;;;34.03;10.00;;;2.90;99.70;;;;;;5091926;28;20257;-63
2021/03/22 00:08:08;;;;;;;34.15;10.35;;;2.90;99.40;;;;;;5090950;28;20024;-63
2021/03/22 00:10:36;;;;;;;36.70;10.65;;;2.80;99.90;;;;;;5091816;28;20476;-63
2021/03/22 00:13:02;;;;;;;34.05;10.18;;;2.80;99.90;;;;;;5090966;28;20488;-65
2021/03/22 00:15:31;;;;;;;45.90;11.00;;;2.80;99.90;;;;;;5091451;28;20028;-63
2021/03/22 00:17:58;;;;;;;36.95;10.18;;;2.90;99.90;;;;;;5091527;28;20046;-63
2021/03/22 00:20:24;;;;;;;32.78;10.43;;;2.90;99.90;;;;;;5090821;28;20048;-63
2021/03/22 00:22:50;;;;;;;39.58;9.82;;;2.90;99.90;;;;;;5091509;28;20073;-63
2021/03/22 00:25:18;;;;;;;42.05;10.75;;;2.90;99.90;;;;;;5089334;28;20024;-62
2021/03/22 00:27:43;;;;;;;38.25;9.13;;;3.00;99.80;;;;;;5091358;28;20032;-62
2021/03/22 00:30:11;;;;;;;39.20;8.80;;;3.10;99.00;;;;;;5090498;28;20483;-64
2021/03/22 00:32:37;;;;;;;30.45;8.90;;;3.10;98.90;;;;;;5091738;28;20025;-63
2021/03/22 00:35:04;;;;;;;32.95;10.23;;;3.10;98.90;;;;;;5093033;28;20074;-65
2021/03/22 00:37:29;;;;;;;42.45;9.88;;;3.10;99.00;;;;;;5093129;28;20028;-63
2021/03/22 00:39:55;;;;;;;33.45;9.30;;;3.10;98.70;;;;;;5093584;28;20461;-63
2021/03/22 00:42:21;;;;;;;36.22;10.02;;;3.20;98.40;;;;;;5093627;28;20285;-64
2021/03/22 00:44:48;;;;;;;34.45;9.23;;;3.20;98.40;;;;;;5094119;28;20024;-62
2021/03/22 00:47:14;;;;;;;35.10;8.73;;;3.20;98.20;;;;;;5076172;28;20098;-63
2021/03/22 00:49:39;;;;;;;40.67;9.75;;;3.30;97.90;;;;;;5094461;28;20020;-62
2021/03/22 00:52:07;;;;;;;39.05;10.15;;;3.30;97.80;;;;;;5093479;28;20431;-63
2021/03/22 00:54:32;;;;;;;35.42;8.90;;;3.40;97.30;;;;;;5094245;28;20024;-62
2021/03/22 00:56:58;;;;;;;37.67;10.65;;;3.50;97.20;;;;;;5094125;28;20036;-63
2021/03/22 00:59:23;;;;;;;34.97;9.57;;;3.40;97.20;;;;;;5093387;28;20056;-62
2021/03/22 01:01:49;;;;;;;34.03;9.43;;;3.40;96.80;;;;;;5094979;28;20411;-61
2021/03/22 01:04:15;;;;;;;36.30;9.38;;;3.40;97.00;;;;;;5094350;28;20059;-62
2021/03/22 01:06:40;;;;;;;36.50;8.23;;;3.50;96.90;;;;;;5094907;28;20114;-61
2021/03/22 01:09:06;;;;;;;40.72;9.02;;;3.50;96.60;;;;;;5075657;28;20107;-62
2021/03/22 01:11:32;;;;;;;29.35;8.10;;;3.50;96.70;;;;;;5094522;28;20459;-61
2021/03/22 01:13:59;;;;;;;40.17;8.50;;;3.50;96.50;;;;;;5076372;28;20028;-62
2021/03/22 01:16:29;;;;;;;30.52;8.65;;;3.50;96.30;;;;;;5093827;28;20016;-62
2021/03/22 01:18:56;;;;;;;43.13;10.38;;;3.50;96.30;;;;;;5094544;28;20071;-64
2021/03/22 01:21:28;;;;;;;40.58;8.13;;;3.50;96.40;;;;;;5093728;28;20122;-64
2021/03/22 01:23:54;;;;;;;29.98;7.72;;;3.50;96.40;;;;;;5094522;28;20032;-62
2021/03/22 01:26:24;;;;;;;37.63;8.10;;;3.40;96.30;;;;;;5075214;28;20032;-61
2021/03/22 01:28:50;;;;;;;32.72;7.35;;;3.40;96.40;;;;;;5094444;28;20373;-62
2021/03/22 01:31:16;;;;;;;36.33;8.88;;;3.40;95.70;;;;;;5075429;28;20062;-62
2021/03/22 01:33:45;;;;;;;30.73;7.20;;;3.50;95.60;;;;;;5094375;28;20069;-62
2021/03/22 01:36:32;;;;;;;38.90;7.82;;;3.50;95.60;;;;;;5093506;28;20353;-62
2021/03/22 01:39:09;;;;;;;38.13;8.18;;;3.50;95.30;;;;;;5094000;28;20025;-62
2021/03/22 01:41:43;;;;;;;33.92;8.32;;;3.50;95.40;;;;;;5093888;28;20031;-62
2021/03/22 01:44:29;;;;;;;30.38;6.80;;;3.60;94.40;;;;;;5092823;28;20028;-62
2021/03/22 01:46:58;;;;;;;25.13;6.60;;;3.60;94.60;;;;;;5094043;28;20024;-62
2021/03/22 01:49:37;;;;;;;33.22;7.20;;;3.50;94.40;;;;;;5093561;28;20088;-62
2021/03/22 01:52:03;;;;;;;38.00;7.50;;;3.50;94.90;;;;;;5093703;28;20028;-65
2021/03/22 01:54:29;;;;;;;34.90;7.35;;;3.40;95.20;;;;;;5093495;28;20104;-62
2021/03/22 01:57:27;;;;;;;35.00;6.68;;;3.40;95.40;;;;;;5093878;28;20110;-62
2021/03/22 01:59:59;;;;;;;36.83;8.45;;;3.40;95.50;;;;;;5094220;28;20043;-62
2021/03/22 02:02:25;;;;;;;27.50;6.82;;;3.40;95.20;;;;;;5093894;28;20023;-62
2021/03/22 02:04:51;;;;;;;44.65;7.35;;;3.30;95.30;;;;;;5094048;28;20081;-60
2021/03/22 02:07:16;;;;;;;32.70;7.15;;;3.40;95.10;;;;;;5093004;28;20024;-62
2021/03/22 02:09:42;;;;;;;37.83;6.60;;;3.40;95.10;;;;;;5093253;28;20354;-61
2021/03/22 02:12:19;;;;;;;28.90;6.32;;;3.40;94.70;;;;;;5092819;28;20020;-62
2021/03/22 02:14:47;;;;;;;34.75;7.30;;;3.40;94.80;;;;;;5093605;28;20031;-64
2021/03/22 02:17:21;;;;;;;38.63;7.03;;;3.30;95.20;;;;;;5092896;28;20462;-62
2021/03/22 02:20:18;;;;;;;30.60;6.68;;;3.40;95.60;;;;;;5093436;28;20105;-62
2021/03/22 02:22:46;;;;;;;38.40;6.85;;;3.30;96.00;;;;;;5093403;28;20054;-63
2021/03/22 02:25:12;;;;;;;31.13;7.15;;;3.30;96.10;;;;;;5092145;28;20038;-62
2021/03/22 02:28:31;;;;;;;36.97;7.10;;;3.20;96.50;;;;;;5093284;28;20111;-61
2021/03/22 02:31:18;;;;;;;31.38;7.15;;;3.20;96.90;;;;;;5010852;28;20030;-62
2021/03/22 02:34:07;;;;;;;33.42;6.97;;;3.30;96.20;;;;;;5010669;28;20038;-62
2021/03/22 02:36:47;;;;;;;27.20;7.10;;;3.30;96.20;;;;;;5073764;28;20067;-62
2021/03/22 02:39:14;;;;;;;38.85;6.95;;;3.30;96.10;;;;;;5092284;28;20024;-64
2021/03/22 02:41:47;;;;;;;34.55;6.63;;;3.40;95.80;;;;;;5091782;28;20099;-62
2021/03/22 02:44:39;;;;;;;30.17;6.30;;;3.30;96.10;;;;;;5092267;28;20484;-62
2021/03/22 02:47:38;;;;;;;30.75;7.13;;;3.30;96.10;;;;;;5088121;28;20038;-64
2021/03/22 02:50:13;;;;;;;33.47;6.75;;;3.30;96.50;;;;;;5074672;28;20059;-64
2021/03/22 02:52:58;;;;;;;30.13;6.97;;;3.40;95.90;;;;;;5093028;28;20465;-62
2021/03/22 02:55:45;;;;;;;33.08;5.95;;;3.30;95.80;;;;;;5072973;28;20051;-61
2021/03/22 02:58:14;;;;;;;30.00;7.30;;;3.20;96.10;;;;;;5091600;28;20457;-62
2021/03/22 03:01:05;;;;;;;31.10;6.78;;;3.30;95.50;;;;;;5092632;28;20046;-61
2021/03/22 03:03:32;;;;;;;25.85;6.07;;;3.30;95.10;;;;;;5092166;28;20469;-62
2021/03/22 03:05:58;;;;;;;30.27;6.18;;;3.30;94.90;;;;;;5092551;28;20354;-62
2021/03/22 03:08:30;;;;;;;33.70;6.28;;;3.20;95.40;;;;;;5091595;28;20031;-62
2021/03/22 03:10:57;;;;;;;36.58;5.95;;;3.20;95.40;;;;;;5092271;28;20396;-59
2021/03/22 03:13:23;;;;;;;27.27;5.03;;;3.20;95.40;;;;;;5091375;28;20465;-62
2021/03/22 03:15:49;;;;;;;29.92;5.75;;;3.10;95.40;;;;;;5092440;28;20030;-61
2021/03/22 03:18:15;;;;;;;29.15;5.35;;;3.10;95.30;;;;;;5091275;28;20024;-62
2021/03/22 03:20:40;;;;;;;28.40;5.05;;;3.10;95.10;;;;;;5092178;28;20465;-62
2021/03/22 03:23:06;;;;;;;37.60;7.00;;;3.10;95.30;;;;;;5073957;28;20024;-64
2021/03/22 03:25:32;;;;;;;30.88;5.75;;;3.10;95.20;;;;;;5091321;28;20160;-60
2021/03/22 03:27:58;;;;;;;24.90;5.30;;;3.10;95.00;;;;;;5092080;28;20497;-62
2021/03/22 03:30:27;;;;;;;32.00;6.25;;;3.10;94.10;;;;;;5091447;28;20036;-62
2021/03/22 03:32:53;;;;;;;23.42;5.18;;;3.10;94.00;;;;;;5092095;28;20028;-62
2021/03/22 03:35:22;;;;;;;27.10;5.50;;;3.00;93.90;;;;;;5091297;28;20020;-62
2021/03/22 03:37:47;;;;;;;21.88;4.93;;;3.00;93.90;;;;;;5091962;28;20465;-62
2021/03/22 03:40:28;;;;;;;22.35;4.40;;;3.00;93.90;;;;;;5091461;28;20054;-63
2021/03/22 03:42:53;;;;;;;;;;;3.00;93.50;;;;;;5092423;28;20453;-62
2021/03/22 03:45:21;;;;;;;27.85;5.05;;;3.10;93.10;;;;;;5091051;28;19911;-63
2021/03/22 03:47:46;;;;;;;27.75;5.28;;;3.00;92.90;;;;;;5092152;28;20032;-63
2021/03/22 03:50:19;;;;;;;41.75;5.80;;;3.00;93.00;;;;;;5091167;28;20415;-63
2021/03/22 03:52:45;;;;;;;26.23;4.50;;;3.00;92.90;;;;;;5092169;28;20031;-62
2021/03/22 03:55:12;;;;;;;32.67;4.95;;;3.00;92.90;;;;;;5090869;28;20036;-64
2021/03/22 03:57:38;;;;;;;36.13;5.40;;;3.10;92.90;;;;;;5091498;28;20036;-62
2021/03/22 04:00:10;;;;;;;27.20;5.40;;;3.00;93.10;;;;;;5091994;28;20134;-63
2021/03/22 04:02:36;;;;;;;29.75;5.57;;;3.10;93.20;;;;;;5090217;28;20024;-63
2021/03/22 04:05:05;;;;;;;32.38;6.45;;;3.10;93.70;;;;;;5091537;28;20058;-61
2021/03/22 04:07:31;;;;;;;21.98;4.95;;;3.10;93.50;;;;;;5091694;28;20456;-63
2021/03/22 04:09:56;;;;;;;26.30;5.20;;;3.10;93.70;;;;;;5096067;28;20039;-62
2021/03/22 04:12:22;;;;;;;29.48;5.05;;;3.00;94.20;;;;;;5093759;28;20020;-61
2021/03/22 04:14:48;;;;;;;25.98;4.63;;;3.00;94.40;;;;;;5095974;28;20024;-62
2021/03/22 04:17:13;;;;;;;31.80;5.25;;;3.00;94.20;;;;;;5094714;28;20111;-63
2021/03/22 04:19:40;;;;;;;35.85;5.53;;;3.10;93.00;;;;;;5094378;28;20020;-62
2021/03/22 04:22:06;;;;;;;35.83;4.90;;;3.10;92.80;;;;;;5095605;28;20098;-61
2021/03/22 04:24:31;;;;;;;26.33;4.95;;;3.00;93.00;;;;;;5076671;28;20054;-62
2021/03/22 04:26:57;;;;;;;22.60;3.95;;;3.00;92.30;;;;;;5095642;28;20028;-63
2021/03/22 04:29:23;;;;;;;19.55;4.18;;;3.00;91.50;;;;;;5094257;28;20044;-62
2021/03/22 04:31:49;;;;;;;19.67;3.28;;;3.30;89.80;;;;;;5093895;28;20031;-61
2021/03/22 04:34:14;;;;;;;24.88;3.50;;;3.30;89.20;;;;;;5092526;28;20381;-62
2021/03/22 04:36:40;;;;;;;27.75;4.43;;;3.30;88.00;;;;;;5093462;28;20039;-63
2021/03/22 04:39:08;;;;;;;29.08;4.40;;;3.40;87.20;;;;;;5094041;28;20020;-62
2021/03/22 04:41:35;;;;;;;20.55;3.45;;;3.30;87.30;;;;;;5092982;28;20298;-62
2021/03/22 04:44:01;;;;;;;15.30;3.67;;;3.30;87.90;;;;;;5084242;28;20480;-62
2021/03/22 04:46:27;;;;;;;20.52;4.22;;;3.20;88.10;;;;;;5092952;28;20043;-60
2021/03/22 04:48:52;;;;;;;26.25;5.10;;;3.20;89.00;;;;;;5093439;28;20401;-59
2021/03/22 04:51:18;;;;;;;21.30;3.97;;;3.20;89.70;;;;;;5090071;28;20028;-62
2021/03/22 04:53:43;;;;;;;27.60;4.35;;;3.10;90.20;;;;;;5093419;28;20496;-62
2021/03/22 04:56:09;;;;;;;25.80;4.03;;;3.10;90.60;;;;;;5093493;28;20032;-63
2021/03/22 04:58:36;;;;;;;32.20;5.20;;;3.10;91.20;;;;;;5093677;28;20561;-63
2021/03/22 05:01:03;;;;;;;29.08;6.18;;;3.10;91.70;;;;;;5094964;28;20111;-63
2021/03/22 05:03:29;;;;;;;34.05;5.78;;;3.10;92.30;;;;;;5094079;28;20027;-63
2021/03/22 05:05:54;;;;;;;33.85;4.90;;;3.10;92.40;;;;;;5094879;28;20035;-63
2021/03/22 05:08:22;;;;;;;34.70;5.10;;;3.10;92.40;;;;;;5093980;28;20060;-63
2021/03/22 05:10:50;;;;;;;26.67;4.60;;;3.10;92.10;;;;;;5094859;28;20081;-62
2021/03/22 05:13:18;;;;;;;30.23;5.80;;;3.10;92.10;;;;;;5093865;28;20055;-64
2021/03/22 05:15:43;;;;;;;26.98;5.05;;;3.10;91.90;;;;;;5094678;28;20028;-64
2021/03/22 05:18:11;;;;;;;28.80;4.25;;;3.10;91.70;;;;;;5093439;28;20358;-64
2021/03/22 05:20:40;;;;;;;29.75;4.50;;;3.10;91.10;;;;;;5094488;28;20044;-59
2021/03/22 05:23:10;;;;;;;24.37;4.10;;;3.10;90.40;;;;;;5094570;28;20377;-63
2021/03/22 05:25:36;;;;;;;24.93;3.97;;;3.10;90.60;;;;;;5094300;28;20749;-60
2021/03/22 05:28:04;;;;;;;27.83;4.47;;;3.10;90.70;;;;;;5094112;28;20270;-60
2021/03/22 05:30:29;;;;;;;17.98;3.38;;;3.00;90.70;;;;;;5093730;28;20028;-63
2021/03/22 05:33:01;;;;;;;22.75;4.35;;;3.00;90.40;;;;;;5094601;28;20034;-60
2021/03/22 05:35:27;;;;;;;23.63;3.65;;;3.10;89.70;;;;;;5093248;28;20035;-62
2021/03/22 05:37:54;;;;;;;25.67;3.92;;;3.20;88.40;;;;;;5094268;28;20111;-60
2021/03/22 05:40:32;;;;;;;20.23;4.43;;;3.30;87.70;;;;;;5093148;28;20448;-62
2021/03/22 05:42:57;;;;;;;21.88;3.90;;;3.20;87.70;;;;;;5093934;28;20137;-59
2021/03/22 05:45:43;;;;;;;15.77;3.53;;;3.30;87.10;;;;;;5093007;28;20046;-59
2021/03/22 05:48:22;;;;;;;15.68;3.58;;;3.20;87.80;;;;;;5094187;28;20028;-64
2021/03/22 05:51:26;;;;;;;21.70;3.70;;;3.20;87.90;;;;;;5093625;28;20358;-62
2021/03/22 05:54:11;;;;;;;18.27;3.05;;;3.20;86.50;;;;;;5093741;28;20380;-61
2021/03/22 05:56:52;;;;;;;12.23;2.83;;;3.30;86.00;;;;;;5093995;28;20518;-62
2021/03/22 06:00:05;;;;;;;29.08;3.60;;;3.40;85.50;;;;;;5093143;28;20489;-61
2021/03/22 06:02:40;;;;;;;14.98;3.33;;;3.50;84.90;;;;;;5073732;28;20067;-61
2021/03/22 06:05:31;;;;;;;18.98;2.80;;;3.50;85.60;;;;;;5093916;28;20095;-60
2021/03/22 06:08:23;;;;;;;25.25;3.78;;;3.50;85.60;;;;;;5091338;28;20040;-61
2021/03/22 06:10:52;;;;;;;22.45;3.38;;;3.40;86.30;;;;;;5093672;28;20036;-62
2021/03/22 06:13:26;;;;;;;23.77;4.22;;;3.40;86.50;;;;;;5092719;28;20028;-63
2021/03/22 06:15:57;;;;;;;24.80;3.47;;;3.40;87.20;;;;;;5093767;28;20488;-62
2021/03/22 06:18:25;;;;;;;24.08;3.55;;;3.30;88.00;;;;;;5093002;28;20028;-61
2021/03/22 06:20:54;;;;;;;19.92;4.40;;;3.40;88.90;;;;;;5093439;28;20032;-60
2021/03/22 06:23:43;;;;;;;22.85;4.75;;;3.30;90.10;;;;;;5092383;28;20028;-61
2021/03/22 06:26:18;;;;;;;28.60;4.80;;;3.30;90.20;;;;;;5093381;28;20035;-64
2021/03/22 06:28:47;;;;;;;25.55;4.18;;;3.30;90.40;;;;;;5093174;28;20032;-62
2021/03/22 06:31:18;;;;;;;31.95;6.05;;;3.40;90.90;;;;;;5092010;28;20028;-65
2021/03/22 06:33:45;;;;;;;36.03;5.25;;;3.40;91.10;;;;;;5093290;28;20030;-61
2021/03/22 06:36:15;;;;;;;30.02;5.80;;;3.40;91.50;;;;;;5093152;28;20028;-65
2021/03/22 06:38:50;;;;;;;22.13;4.35;;;3.40;91.90;;;;;;5092910;28;20034;-63
2021/03/22 06:41:51;;;;;;;22.63;5.00;;;3.40;92.10;;;;;;5092243;28;20378;-63
2021/03/22 06:44:36;;;;;;;29.83;4.60;;;3.40;92.00;;;;;;5090779;28;20024;-62
2021/03/22 06:47:18;;;;;;;27.23;4.80;;;3.50;92.50;;;;;;5092090;28;20107;-63
2021/03/22 06:49:49;;;;;;;23.83;5.35;;;3.50;92.50;;;;;;5092112;28;20055;-63
2021/03/22 06:52:24;;;;;;;36.25;5.78;;;3.40;92.70;;;;;;5091790;28;20111;-67
2021/03/22 06:54:52;;;;;;;35.97;5.72;;;3.40;93.00;;;;;;5092624;28;20032;-63
2021/03/22 06:57:22;;;;;;;25.15;4.80;;;3.50;92.70;;;;;;5073780;28;20024;-63
2021/03/22 07:00:07;;;;;;;32.72;4.95;;;3.50;92.60;;;;;;5092608;28;20063;-64
2021/03/22 07:02:50;;;;;;;25.65;4.75;;;3.50;92.40;;;;;;5091563;28;20028;-63
2021/03/22 07:05:28;;;;;;;27.77;5.10;;;3.50;92.30;;;;;;5085742;28;20411;-64
2021/03/22 07:07:57;;;;;;;29.40;5.35;;;3.60;92.20;;;;;;5081016;28;20064;-64
2021/03/22 07:10:26;;;;;;;34.45;5.18;;;3.60;91.90;;;;;;5071442;28;20411;-64
2021/03/22 07:13:15;;;;;;;25.77;5.22;;;3.60;91.80;;;;;;5054401;28;20116;-64
2021/03/22 07:15:41;;;;;;;24.02;4.25;;;3.70;92.10;;;;;;5056067;28;20034;-64
2021/03/22 07:18:23;;;;;;;25.52;4.75;;;3.70;91.70;;;;;;5072195;28;20025;-62
2021/03/22 07:20:54;;;;;;;34.03;4.88;;;3.70;91.50;;;;;;5078649;28;20020;-64
2021/03/22 07:23:26;;;;;;;28.63;5.10;;;3.70;90.70;;;;;;5091155;28;20035;-64
2021/03/22 07:26:14;;;;;;;20.27;4.25;;;3.70;91.00;;;;;;5081590;28;20457;-60
2021/03/22 07:29:01;;;;;;;19.98;4.05;;;3.70;91.10;;;;;;5071295;28;20075;-63
2021/03/22 07:31:35;;;;;;;25.42;5.45;;;3.80;91.00;;;;;;5071220;28;20033;-61
2021/03/22 07:34:20;;;;;;;25.40;4.28;;;3.90;90.70;;;;;;5071882;28;20127;-63
2021/03/22 07:36:58;;;;;;;30.38;4.68;;;4.00;90.50;;;;;;5071806;28;20021;-64
2021/03/22 07:39:42;;;;;;;23.90;5.03;;;4.00;90.30;;;;;;5070847;28;20120;-61
2021/03/22 07:42:40;;;;;;;26.30;5.53;;;4.10;90.00;;;;;;5054847;28;20036;-62
2021/03/22 07:45:26;;;;;;;21.95;4.38;;;4.20;88.70;;;;;;5054240;28;20070;-63
2021/03/22 07:48:18;;;;;;;23.45;4.70;;;4.30;87.80;;;;;;5091080;28;20032;-63
2021/03/22 07:50:59;;;;;;;31.83;4.82;;;4.40;87.20;;;;;;5091695;28;20385;-63
2021/03/22 07:53:30;;;;;;;29.80;4.70;;;4.40;86.80;;;;;;5090892;28;20021;-64
2021/03/22 07:56:00;;;;;;;21.02;4.82;;;4.40;86.70;;;;;;5092046;28;20024;-62
2021/03/22 07:58:48;;;;;;;;;;;4.40;87.20;;;;;;5091286;28;20090;-64
2021/03/22 08:01:13;;;;;;;28.00;4.88;;;4.30;87.60;;;;;;5091679;28;19911;-66
2021/03/22 08:04:13;;;;;;;23.35;4.32;;;4.40;86.60;;;;;;5091324;28;20028;-64
2021/03/22 08:07:26;;;;;;;18.60;3.30;;;4.40;85.90;;;;;;5091232;28;20051;-63
2021/03/22 08:10:22;;;;;;;15.13;3.72;;;4.50;86.60;;;;;;5083932;28;20043;-62
2021/03/22 08:12:54;;;;;;;17.08;3.88;;;4.60;84.00;;;;;;5091388;28;20119;-63
2021/03/22 08:15:45;;;;;;;19.15;3.60;;;4.70;83.90;;;;;;5090024;28;20112;-66
2021/03/22 08:18:41;;;;;;;18.98;3.95;;;4.70;84.50;;;;;;5071950;28;20428;-64
2021/03/22 08:21:16;;;;;;;15.05;2.95;;;4.80;83.10;;;;;;5084508;28;20028;-63
2021/03/22 08:24:14;;;;;;;13.30;2.95;;;4.90;82.80;;;;;;5091039;28;20093;-62
2021/03/22 08:27:07;;;;;;;12.48;3.13;;;4.90;81.90;;;;;;5068713;28;20088;-62
2021/03/22 08:29:40;;;;;;;19.95;3.03;;;5.00;81.70;;;;;;5072685;28;20484;-64
2021/03/22 08:32:42;;;;;;;16.27;2.75;;;5.20;81.90;;;;;;5091174;28;20081;-63
2021/03/22 08:35:25;;;;;;;13.65;2.13;;;5.40;81.50;;;;;;5091358;28;20024;-61
2021/03/22 08:38:01;;;;;;;15.55;2.80;;;5.40;80.90;;;;;;5091262;28;20103;-62
2021/03/22 08:40:48;;;;;;;10.80;2.35;;;5.50;80.90;;;;;;5090138;28;20031;-62
2021/03/22 08:43:39;;;;;;;11.15;3.17;;;5.60;80.70;;;;;;5066316;28;20067;-62
2021/03/22 08:46:26;;;;;;;14.68;2.97;;;5.80;80.50;;;;;;5081951;28;20350;-64
2021/03/22 08:48:52;;;;;;;13.70;2.58;;;5.90;80.70;;;;;;5089366;28;20032;-62
2021/03/22 08:51:28;;;;;;;20.73;3.25;;;6.00;81.90;;;;;;5090125;28;20024;-67
2021/03/22 08:53:56;;;;;;;16.75;3.28;;;6.10;81.90;;;;;;5098920;28;20050;-62
2021/03/22 08:56:48;;;;;;;13.00;2.92;;;6.10;81.50;;;;;;5076662;28;20054;-62
2021/03/22 08:59:20;;;;;;;21.48;3.38;;;6.20;81.30;;;;;;5103641;28;20054;-61
2021/03/22 09:01:46;;;;;;;40.20;5.68;;;6.00;81.20;;;;;;5112105;28;20031;-64
2021/03/22 09:04:20;;;;;;;18.83;3.25;;;5.90;81.40;;;;;;5112269;28;20042;-64
2021/03/22 09:07:01;;;;;;;21.40;3.65;;;5.70;82.20;;;;;;5077977;28;20077;-64
2021/03/22 09:09:30;;;;;;;18.40;3.30;;;5.70;82.50;;;;;;5093792;28;20035;-61
2021/03/22 09:11:57;;;;;;;16.55;3.53;;;5.70;82.10;;;;;;5076270;28;20094;-63
2021/03/22 09:14:30;;;;;;;17.92;3.10;;;5.70;82.10;;;;;;5110134;28;20032;-62
2021/03/22 09:16:57;;;;;;;19.15;3.00;;;5.70;80.80;;;;;;5104356;28;20024;-60
2021/03/22 09:20:06;;;;;;;14.43;2.83;;;5.50;81.50;;;;;;5107144;28;20119;-63
2021/03/22 09:22:41;;;;;;;15.27;3.88;;;5.50;81.80;;;;;;5094648;28;20050;-61
2021/03/22 09:25:10;;;;;;;15.68;3.03;;;5.40;81.90;;;;;;5094591;28;20376;-61
2021/03/22 09:27:36;;;;;;;14.50;2.90;;;5.40;82.00;;;;;;5106126;28;20036;-60
2021/03/22 09:30:02;;;;;;;16.33;2.75;;;5.40;82.20;;;;;;5077201;28;20028;-63
2021/03/22 09:35:18;;;;;;;17.75;2.47;;;5.50;83.00;;;;;;5101463;28;20447;-64
2021/03/22 09:37:49;;;;;;;12.25;2.17;;;5.70;81.20;;;;;;5101501;28;20038;-61
2021/03/22 09:40:21;;;;;;;7.75;2.13;;;5.90;80.70;;;;;;5109262;28;20036;-61
2021/03/22 09:43:05;;;;;;;14.30;2.63;;;6.00;80.50;;;;;;5102770;28;20027;-62
2021/03/22 09:45:34;;;;;;;14.70;2.35;;;6.20;79.60;;;;;;5107334;28;20469;-64
2021/03/22 09:48:16;;;;;;;15.05;2.53;;;6.30;78.50;;;;;;5102625;28;20024;-63
2021/03/22 09:50:44;;;;;;;11.93;2.33;;;6.30;79.00;;;;;;5093131;28;20031;-58
2021/03/22 09:53:21;;;;;;;7.63;2.60;;;6.20;79.20;;;;;;5111541;28;20034;-61
2021/03/22 09:55:52;;;;;;;21.13;3.15;;;6.20;79.70;;;;;;5112266;28;20032;-61
2021/03/22 09:58:35;;;;;;;16.02;3.35;;;6.30;79.80;;;;;;5107204;28;20052;-66
2021/03/22 10:01:30;;;;;;;13.18;3.50;;;6.40;80.10;;;;;;5093459;28;20063;-59
2021/03/22 10:04:22;;;;;;;11.95;2.00;;;6.60;83.60;;;;;;5102421;28;20031;-61
2021/03/22 10:06:57;;;;;;;12.50;2.75;;;6.80;82.00;;;;;;5093538;28;20081;-63
2021/03/22 10:10:01;;;;;;;19.65;3.20;;;6.90;81.50;;;;;;5093247;28;20062;-61
2021/03/22 10:12:37;;;;;;;12.45;2.65;;;7.20;83.50;;;;;;5091619;28;20020;-61
2021/03/22 10:15:23;;;;;;;16.58;3.08;;;7.20;84.00;;;;;;5093227;28;20054;-63
2021/03/22 10:17:59;;;;;;;15.55;2.70;;;7.30;83.10;;;;;;5089559;28;20055;-60
2021/03/22 10:20:42;;;;;;;12.55;2.65;;;7.30;84.40;;;;;;5092110;28;20038;-62
2021/03/22 10:23:44;;;;;;;9.70;2.83;;;7.60;86.20;;;;;;5104651;28;20034;-61
2021/03/22 10:26:35;;;;;;;10.80;2.30;;;7.50;85.70;;;;;;5104731;28;20027;-62
2021/03/22 10:29:19;;;;;;;9.93;2.85;;;7.40;85.20;;;;;;5098601;28;20023;-62
2021/03/22 10:31:48;;;;;;;11.75;2.45;;;7.30;85.10;;;;;;5108838;28;20044;-61
2021/03/22 10:34:22;;;;;;;11.82;2.95;;;7.20;85.20;;;;;;5092309;28;20032;-62
2021/03/22 10:36:49;;;;;;;9.50;2.05;;;7.00;85.70;;;;;;5093949;28;20028;-62
2021/03/22 10:39:40;;;;;;;11.73;2.58;;;6.90;85.40;;;;;;5092547;28;20024;-62
2021/03/22 10:42:29;;;;;;;10.73;2.25;;;6.50;86.00;;;;;;5098837;28;20050;-63
2021/03/22 10:44:55;;;;;;;15.70;2.83;;;6.20;86.80;;;;;;5111465;28;20426;-62
2021/03/22 10:47:24;;;;;;;6.95;2.58;;;6.00;88.50;;;;;;5104217;28;20053;-64
2021/03/22 10:49:51;;;;;;;13.32;2.38;;;5.90;88.40;;;;;;5110126;28;20443;-63
2021/03/22 10:52:21;;;;;;;11.15;2.53;;;5.80;89.20;;;;;;5094772;28;20461;-62
2021/03/22 10:54:48;;;;;;;11.60;3.10;;;5.70;89.30;;;;;;5095400;28;20031;-62
2021/03/22 10:57:37;;;;;;;9.90;2.05;;;5.70;88.80;;;;;;5103905;28;20047;-61
2021/03/22 11:00:41;;;;;;;9.73;1.55;;;5.80;88.00;;;;;;5094970;28;20059;-60
2021/03/22 11:03:08;;;;;;;8.80;1.88;;;5.80;87.90;;;;;;5070038;28;20043;-62
2021/03/22 11:05:38;;;;;;;13.00;2.53;;;5.80;88.60;;;;;;5081819;28;20051;-62
2021/03/22 11:08:08;;;;;;;9.75;3.03;;;5.90;89.00;;;;;;5099652;28;20105;-62
2021/03/22 11:10:35;;;;;;;15.98;3.15;;;6.00;88.60;;;;;;5092286;28;20036;-62
2021/03/22 11:13:02;;;;;;;12.07;2.17;;;6.10;88.40;;;;;;5099895;28;20401;-62
2021/03/22 11:15:31;;;;;;;12.68;3.33;;;6.30;84.90;;;;;;5092286;28;20105;-62
2021/03/22 11:17:57;;;;;;;9.80;2.25;;;6.40;81.40;;;;;;5084764;28;20031;-59
2021/03/22 11:20:23;;;;;;;9.80;2.42;;;6.60;80.40;;;;;;5089298;28;20040;-63
2021/03/22 11:22:51;;;;;;;7.35;2.53;;;6.90;78.90;;;;;;5104969;28;20028;-63
2021/03/22 11:25:34;;;;;;;11.27;2.67;;;7.10;77.60;;;;;;5088613;28;20114;-62
2021/03/22 11:28:01;;;;;;;10.43;2.35;;;7.10;76.70;;;;;;5107412;28;20464;-62
2021/03/22 11:30:40;;;;;;;8.73;2.10;;;7.10;78.10;;;;;;5091004;28;20085;-62
2021/03/22 11:33:14;;;;;;;11.80;2.45;;;7.10;77.90;;;;;;5094029;28;20043;-63
2021/03/22 11:35:43;;;;;;;9.43;2.30;;;7.10;77.00;;;;;;5103658;28;20910;-63
2021/03/22 11:38:23;;;;;;;10.65;2.40;;;7.00;77.40;;;;;;5091507;28;20024;-64
2021/03/22 11:40:49;;;;;;;12.43;2.25;;;7.00;76.20;;;;;;5106124;28;20071;-65
2021/03/22 11:43:29;;;;;;;9.80;2.38;;;7.00;76.70;;;;;;5109977;28;20436;-67
2021/03/22 11:45:55;;;;;;;12.43;3.30;;;7.00;77.40;;;;;;5088254;28;20063;-64
2021/03/22 11:48:21;;;;;;;10.70;2.42;;;7.10;76.70;;;;;;5090824;28;20293;-65
2021/03/22 11:50:47;;;;;;;9.48;1.90;;;7.20;75.70;;;;;;5094951;28;20067;-61
2021/03/22 11:53:19;;;;;;;9.65;2.38;;;7.30;76.10;;;;;;5099389;28;20024;-61
2021/03/22 11:55:56;;;;;;;11.63;2.28;;;7.50;76.50;;;;;;5110064;28;20035;-61
2021/03/22 11:58:37;;;;;;;10.80;2.35;;;7.80;80.80;;;;;;5097870;28;20127;-69
2021/03/22 12:01:25;;;;;;;7.00;2.28;;;8.00;84.40;;;;;;5092454;28;20040;-66
2021/03/22 12:04:03;;;;;;;10.70;2.30;;;8.10;63.10;;;;;;5090081;28;20020;-68
2021/03/22 12:06:30;;;;;;;5.05;1.80;;;8.10;63.20;;;;;;5090372;28;20373;-65
2021/03/22 12:08:56;;;;;;;6.63;2.47;;;8.20;63.80;;;;;;5092512;28;20031;-66
2021/03/22 12:11:27;;;;;;;8.70;2.13;;;8.20;62.10;;;;;;5084625;28;20419;-70
2021/03/22 12:13:55;;;;;;;14.93;2.67;;;8.30;62.30;;;;;;5109014;28;20114;-68
2021/03/22 12:16:24;;;;;;;9.10;2.95;;;8.10;62.50;;;;;;5086598;28;20429;-68
2021/03/22 12:18:53;;;;;;;6.25;2.15;;;7.90;63.30;;;;;;5100779;28;20123;-67
2021/03/22 12:21:19;;;;;;;10.65;2.92;;;7.70;64.30;;;;;;5092136;28;20074;-67
2021/03/22 12:23:46;;;;;;;11.23;2.67;;;7.60;64.50;;;;;;5095331;28;20079;-66
2021/03/22 12:26:18;;;;;;;11.07;2.92;;;7.60;64.30;;;;;;5087612;28;20024;-68
2021/03/22 12:28:55;;;;;;;10.85;2.60;;;7.50;64.90;;;;;;5091828;28;20240;-66
2021/03/22 12:31:27;;;;;;;6.18;2.05;;;7.40;65.30;;;;;;5095524;28;20024;-66
2021/03/22 12:33:55;;;;;;;8.80;2.95;;;7.30;65.70;;;;;;5095603;28;20160;-66
2021/03/22 12:36:20;;;;;;;6.90;2.50;;;7.20;65.80;;;;;;5095325;28;20020;-65
2021/03/22 12:38:46;;;;;;;9.18;2.58;;;7.00;66.70;;;;;;5095592;28;20088;-67
2021/03/22 12:41:27;;;;;;;12.63;2.63;;;6.80;67.70;;;;;;5097390;28;20469;-67
2021/03/22 12:43:53;;;;;;;13.70;2.70;;;6.60;67.90;;;;;;5095180;28;20055;-68
2021/03/22 12:46:19;;;;;;;9.85;2.30;;;6.50;68.90;;;;;;5094578;28;20017;-67
2021/03/22 12:48:44;;;;;;;11.30;2.92;;;6.30;69.50;;;;;;5094253;28;20161;-69
2021/03/22 12:51:10;;;;;;;8.07;2.28;;;6.30;70.20;;;;;;5096994;28;20054;-68
2021/03/22 12:53:36;;;;;;;10.52;2.08;;;6.20;70.00;;;;;;5100691;28;20059;-66
2021/03/22 12:56:02;;;;;;;7.43;2.30;;;6.10;70.40;;;;;;5096744;28;20035;-68
2021/03/22 12:58:27;;;;;;;11.65;2.92;;;6.00;70.70;;;;;;5095440;28;20080;-69
2021/03/22 13:00:55;;;;;;;10.38;2.92;;;5.90;71.30;;;;;;5106394;28;20047;-66
2021/03/22 13:03:24;;;;;;;7.82;2.88;;;5.80;71.40;;;;;;5097915;28;20092;-67
2021/03/22 13:05:55;;;;;;;10.25;3.03;;;5.90;71.90;;;;;;5096279;28;20024;-67
2021/03/22 13:08:23;;;;;;;15.45;2.83;;;5.80;71.00;;;;;;5098745;28;20024;-66
2021/03/22 13:10:49;;;;;;;12.32;2.92;;;5.70;71.40;;;;;;5092562;28;20155;-67
2021/03/22 13:13:14;;;;;;;9.05;2.40;;;5.70;72.10;;;;;;5094620;28;20028;-67
2021/03/22 13:15:45;;;;;;;12.02;2.55;;;5.70;72.00;;;;;;5092529;28;20160;-67
2021/03/22 13:18:19;;;;;;;8.65;2.75;;;5.70;72.50;;;;;;5094270;28;20028;-67
2021/03/22 13:20:47;;;;;;;6.80;2.53;;;5.70;72.20;;;;;;5093542;28;20673;-67
2021/03/22 13:23:14;;;;;;;10.13;3.40;;;5.80;71.60;;;;;;5094565;28;20060;-66